sensor_id;sensor_type;location;lat;lon;timestamp;temperature;humidity
82243;DHT22;71844;51.528;4.442;2023-07-31T00:01:54;16.50;89.50
82243;DHT22;71844;51.528;4.442;2023-07-31T00:04:21;16.50;89.40
82243;DHT22;71844;51.528;4.442;2023-07-31T00:06:48;16.50;89.40
82243;DHT22;71844;51.528;4.442;2023-07-31T00:09:14;16.50;89.20
82243;DHT22;71844;51.528;4.442;2023-07-31T00:11:41;16.50;89.10
82243;DHT22;71844;51.528;4.442;2023-07-31T00:14:08;16.50;89.10
82243;DHT22;71844;51.528;4.442;2023-07-31T00:16:35;16.50;89.00
82243;DHT22;71844;51.528;4.442;2023-07-31T00:19:02;16.50;88.90
82243;DHT22;71844;51.528;4.442;2023-07-31T00:21:29;16.50;88.70
82243;DHT22;71844;51.528;4.442;2023-07-31T00:23:56;16.50;88.70
82243;DHT22;71844;51.528;4.442;2023-07-31T00:26:23;16.60;88.70
82243;DHT22;71844;51.528;4.442;2023-07-31T00:28:49;16.50;88.50
82243;DHT22;71844;51.528;4.442;2023-07-31T00:31:16;16.50;88.40
82243;DHT22;71844;51.528;4.442;2023-07-31T00:33:43;16.50;88.30
82243;DHT22;71844;51.528;4.442;2023-07-31T00:36:10;16.50;88.40
82243;DHT22;71844;51.528;4.442;2023-07-31T00:38:36;16.50;88.40
82243;DHT22;71844;51.528;4.442;2023-07-31T00:41:03;16.50;88.20
82243;DHT22;71844;51.528;4.442;2023-07-31T00:43:30;16.50;88.20
82243;DHT22;71844;51.528;4.442;2023-07-31T00:45:57;16.50;88.10
82243;DHT22;71844;51.528;4.442;2023-07-31T00:48:24;16.50;88.10
82243;DHT22;71844;51.528;4.442;2023-07-31T00:50:51;16.50;88.10
82243;DHT22;71844;51.528;4.442;2023-07-31T00:53:18;16.50;88.00
82243;DHT22;71844;51.528;4.442;2023-07-31T00:55:45;16.50;88.00
82243;DHT22;71844;51.528;4.442;2023-07-31T00:58:15;16.50;87.90
82243;DHT22;71844;51.528;4.442;2023-07-31T01:03:18;16.50;87.80
82243;DHT22;71844;51.528;4.442;2023-07-31T01:08:54;16.50;87.60
82243;DHT22;71844;51.528;4.442;2023-07-31T01:11:28;16.50;87.50
82243;DHT22;71844;51.528;4.442;2023-07-31T01:13:58;16.50;87.10
82243;DHT22;71844;51.528;4.442;2023-07-31T01:16:26;16.50;87.10
82243;DHT22;71844;51.528;4.442;2023-07-31T01:18:53;16.50;87.10
82243;DHT22;71844;51.528;4.442;2023-07-31T01:27:12;16.50;86.70
82243;DHT22;71844;51.528;4.442;2023-07-31T01:30:00;16.50;86.70
82243;DHT22;71844;51.528;4.442;2023-07-31T01:32:31;16.50;86.30
82243;DHT22;71844;51.528;4.442;2023-07-31T01:34:59;16.50;86.50
82243;DHT22;71844;51.528;4.442;2023-07-31T01:37:29;16.50;86.40
82243;DHT22;71844;51.528;4.442;2023-07-31T01:39:56;16.50;86.30
82243;DHT22;71844;51.528;4.442;2023-07-31T01:42:23;16.50;86.00
82243;DHT22;71844;51.528;4.442;2023-07-31T01:44:50;16.50;86.00
82243;DHT22;71844;51.528;4.442;2023-07-31T01:47:17;16.50;85.90
82243;DHT22;71844;51.528;4.442;2023-07-31T01:49:43;16.50;85.80
82243;DHT22;71844;51.528;4.442;2023-07-31T01:52:10;16.50;85.80
82243;DHT22;71844;51.528;4.442;2023-07-31T01:54:37;16.50;85.80
82243;DHT22;71844;51.528;4.442;2023-07-31T01:57:04;16.50;85.60
82243;DHT22;71844;51.528;4.442;2023-07-31T01:59:31;16.50;85.30
82243;DHT22;71844;51.528;4.442;2023-07-31T02:01:58;16.50;85.40
82243;DHT22;71844;51.528;4.442;2023-07-31T02:04:25;16.50;85.20
82243;DHT22;71844;51.528;4.442;2023-07-31T02:06:52;16.50;85.20
82243;DHT22;71844;51.528;4.442;2023-07-31T02:09:19;16.50;85.20
82243;DHT22;71844;51.528;4.442;2023-07-31T02:11:46;16.50;85.20
82243;DHT22;71844;51.528;4.442;2023-07-31T02:14:13;16.50;85.10
82243;DHT22;71844;51.528;4.442;2023-07-31T02:16:39;16.50;84.90
82243;DHT22;71844;51.528;4.442;2023-07-31T02:19:07;16.50;85.00
82243;DHT22;71844;51.528;4.442;2023-07-31T02:21:36;16.50;84.90
82243;DHT22;71844;51.528;4.442;2023-07-31T02:24:04;16.50;85.00
82243;DHT22;71844;51.528;4.442;2023-07-31T02:26:30;16.50;85.00
82243;DHT22;71844;51.528;4.442;2023-07-31T02:28:57;16.50;84.90
82243;DHT22;71844;51.528;4.442;2023-07-31T02:31:27;16.50;84.80
82243;DHT22;71844;51.528;4.442;2023-07-31T02:33:54;16.50;84.80
82243;DHT22;71844;51.528;4.442;2023-07-31T02:36:20;16.50;84.80
82243;DHT22;71844;51.528;4.442;2023-07-31T02:38:47;16.50;84.70
82243;DHT22;71844;51.528;4.442;2023-07-31T02:41:14;16.50;84.60
82243;DHT22;71844;51.528;4.442;2023-07-31T02:43:41;16.50;84.60
82243;DHT22;71844;51.528;4.442;2023-07-31T02:46:07;16.50;84.40
82243;DHT22;71844;51.528;4.442;2023-07-31T02:48:34;16.50;84.60
82243;DHT22;71844;51.528;4.442;2023-07-31T02:51:01;16.50;84.60
82243;DHT22;71844;51.528;4.442;2023-07-31T02:53:28;16.50;84.50
82243;DHT22;71844;51.528;4.442;2023-07-31T02:55:54;16.50;84.50
82243;DHT22;71844;51.528;4.442;2023-07-31T02:58:21;16.50;84.30
82243;DHT22;71844;51.528;4.442;2023-07-31T03:00:48;16.50;84.30
82243;DHT22;71844;51.528;4.442;2023-07-31T03:03:16;16.50;84.30
82243;DHT22;71844;51.528;4.442;2023-07-31T03:05:43;16.50;84.30
82243;DHT22;71844;51.528;4.442;2023-07-31T03:08:09;16.50;84.10
82243;DHT22;71844;51.528;4.442;2023-07-31T03:10:36;16.50;84.20
82243;DHT22;71844;51.528;4.442;2023-07-31T03:13:03;16.50;84.20
82243;DHT22;71844;51.528;4.442;2023-07-31T03:15:30;16.50;84.20
82243;DHT22;71844;51.528;4.442;2023-07-31T03:17:57;16.50;84.10
82243;DHT22;71844;51.528;4.442;2023-07-31T03:20:24;16.50;84.10
82243;DHT22;71844;51.528;4.442;2023-07-31T03:22:50;16.50;84.20
82243;DHT22;71844;51.528;4.442;2023-07-31T03:25:17;16.50;84.20
82243;DHT22;71844;51.528;4.442;2023-07-31T03:27:44;16.50;84.10
82243;DHT22;71844;51.528;4.442;2023-07-31T03:30:11;16.50;84.10
82243;DHT22;71844;51.528;4.442;2023-07-31T03:32:38;16.50;84.00
82243;DHT22;71844;51.528;4.442;2023-07-31T03:35:05;16.50;84.00
82243;DHT22;71844;51.528;4.442;2023-07-31T03:37:32;16.50;84.00
82243;DHT22;71844;51.528;4.442;2023-07-31T03:39:59;16.50;84.00
82243;DHT22;71844;51.528;4.442;2023-07-31T03:42:25;16.40;84.20
82243;DHT22;71844;51.528;4.442;2023-07-31T03:44:52;16.40;84.30
82243;DHT22;71844;51.528;4.442;2023-07-31T03:47:19;16.30;84.40
82243;DHT22;71844;51.528;4.442;2023-07-31T03:49:46;16.30;84.60
82243;DHT22;71844;51.528;4.442;2023-07-31T03:52:13;16.30;84.90
82243;DHT22;71844;51.528;4.442;2023-07-31T03:54:39;16.30;84.90
82243;DHT22;71844;51.528;4.442;2023-07-31T03:57:06;16.30;84.90
82243;DHT22;71844;51.528;4.442;2023-07-31T03:59:33;16.30;85.00
82243;DHT22;71844;51.528;4.442;2023-07-31T04:02:00;16.30;85.10
82243;DHT22;71844;51.528;4.442;2023-07-31T04:04:26;16.30;85.00
82243;DHT22;71844;51.528;4.442;2023-07-31T04:06:53;16.30;85.00
82243;DHT22;71844;51.528;4.442;2023-07-31T04:09:20;16.40;84.80
82243;DHT22;71844;51.528;4.442;2023-07-31T04:11:46;16.40;84.80
82243;DHT22;71844;51.528;4.442;2023-07-31T04:14:13;16.40;84.70
82243;DHT22;71844;51.528;4.442;2023-07-31T04:16:40;16.30;84.60
82243;DHT22;71844;51.528;4.442;2023-07-31T04:19:07;16.30;84.70
82243;DHT22;71844;51.528;4.442;2023-07-31T04:21:34;16.30;84.80
82243;DHT22;71844;51.528;4.442;2023-07-31T04:24:01;16.20;85.10
82243;DHT22;71844;51.528;4.442;2023-07-31T04:26:28;16.10;85.40
82243;DHT22;71844;51.528;4.442;2023-07-31T04:28:54;16.10;85.60
82243;DHT22;71844;51.528;4.442;2023-07-31T04:31:21;16.00;85.70
82243;DHT22;71844;51.528;4.442;2023-07-31T04:33:48;16.00;85.90
82243;DHT22;71844;51.528;4.442;2023-07-31T04:36:15;16.00;86.30
82243;DHT22;71844;51.528;4.442;2023-07-31T04:38:42;15.90;86.40
82243;DHT22;71844;51.528;4.442;2023-07-31T04:41:08;15.90;86.70
82243;DHT22;71844;51.528;4.442;2023-07-31T04:43:36;15.90;86.60
82243;DHT22;71844;51.528;4.442;2023-07-31T04:46:05;15.90;87.20
82243;DHT22;71844;51.528;4.442;2023-07-31T04:48:32;15.90;87.50
82243;DHT22;71844;51.528;4.442;2023-07-31T04:50:59;15.90;87.70
82243;DHT22;71844;51.528;4.442;2023-07-31T04:53:26;15.80;87.90
82243;DHT22;71844;51.528;4.442;2023-07-31T04:55:52;15.80;88.40
82243;DHT22;71844;51.528;4.442;2023-07-31T04:58:19;15.80;88.00
82243;DHT22;71844;51.528;4.442;2023-07-31T05:00:46;15.80;88.40
82243;DHT22;71844;51.528;4.442;2023-07-31T05:03:13;15.80;88.40
82243;DHT22;71844;51.528;4.442;2023-07-31T05:05:40;15.80;88.70
82243;DHT22;71844;51.528;4.442;2023-07-31T05:08:09;15.80;88.70
82243;DHT22;71844;51.528;4.442;2023-07-31T05:10:36;15.80;90.60
82243;DHT22;71844;51.528;4.442;2023-07-31T05:13:03;15.80;89.20
82243;DHT22;71844;51.528;4.442;2023-07-31T05:15:29;15.80;89.50
82243;DHT22;71844;51.528;4.442;2023-07-31T05:17:56;15.80;89.70
82243;DHT22;71844;51.528;4.442;2023-07-31T05:20:23;15.80;89.80
82243;DHT22;71844;51.528;4.442;2023-07-31T05:22:51;15.80;89.90
82243;DHT22;71844;51.528;4.442;2023-07-31T05:25:17;15.80;90.00
82243;DHT22;71844;51.528;4.442;2023-07-31T05:27:44;15.90;90.00
82243;DHT22;71844;51.528;4.442;2023-07-31T05:30:11;15.90;90.10
82243;DHT22;71844;51.528;4.442;2023-07-31T05:32:38;15.90;91.00
82243;DHT22;71844;51.528;4.442;2023-07-31T05:35:05;15.90;90.50
82243;DHT22;71844;51.528;4.442;2023-07-31T05:37:32;15.90;90.50
82243;DHT22;71844;51.528;4.442;2023-07-31T05:39:59;15.90;90.60
82243;DHT22;71844;51.528;4.442;2023-07-31T05:42:26;16.00;90.30
82243;DHT22;71844;51.528;4.442;2023-07-31T05:44:53;16.00;90.70
82243;DHT22;71844;51.528;4.442;2023-07-31T05:47:20;16.00;90.80
82243;DHT22;71844;51.528;4.442;2023-07-31T05:49:48;16.00;90.90
82243;DHT22;71844;51.528;4.442;2023-07-31T05:52:16;16.00;90.70
82243;DHT22;71844;51.528;4.442;2023-07-31T05:54:42;16.00;90.70
82243;DHT22;71844;51.528;4.442;2023-07-31T05:57:09;16.00;90.90
82243;DHT22;71844;51.528;4.442;2023-07-31T05:59:36;16.10;91.40
82243;DHT22;71844;51.528;4.442;2023-07-31T06:51:46;16.20;92.50
82243;DHT22;71844;51.528;4.442;2023-07-31T06:54:13;16.20;92.30
82243;DHT22;71844;51.528;4.442;2023-07-31T06:56:40;16.30;92.00
82243;DHT22;71844;51.528;4.442;2023-07-31T06:59:07;16.30;92.20
82243;DHT22;71844;51.528;4.442;2023-07-31T07:01:34;16.30;92.50
82243;DHT22;71844;51.528;4.442;2023-07-31T07:04:01;16.40;92.20
82243;DHT22;71844;51.528;4.442;2023-07-31T07:06:28;16.40;92.20
82243;DHT22;71844;51.528;4.442;2023-07-31T07:08:55;16.40;92.50
82243;DHT22;71844;51.528;4.442;2023-07-31T07:11:21;16.40;92.10
82243;DHT22;71844;51.528;4.442;2023-07-31T07:13:48;16.40;92.40
82243;DHT22;71844;51.528;4.442;2023-07-31T07:16:15;16.40;92.60
82243;DHT22;71844;51.528;4.442;2023-07-31T07:18:43;16.50;92.50
82243;DHT22;71844;51.528;4.442;2023-07-31T07:21:29;16.40;92.40
82243;DHT22;71844;51.528;4.442;2023-07-31T07:23:56;16.40;92.50
82243;DHT22;71844;51.528;4.442;2023-07-31T07:26:23;16.50;92.30
82243;DHT22;71844;51.528;4.442;2023-07-31T07:28:49;16.50;92.70
82243;DHT22;71844;51.528;4.442;2023-07-31T07:31:16;16.40;92.50
82243;DHT22;71844;51.528;4.442;2023-07-31T07:33:43;16.40;92.70
82243;DHT22;71844;51.528;4.442;2023-07-31T07:36:10;16.50;92.60
82243;DHT22;71844;51.528;4.442;2023-07-31T07:38:39;16.50;92.70
82243;DHT22;71844;51.528;4.442;2023-07-31T07:41:06;16.50;92.70
82243;DHT22;71844;51.528;4.442;2023-07-31T07:43:33;16.50;92.60
82243;DHT22;71844;51.528;4.442;2023-07-31T07:45:59;16.50;92.80
82243;DHT22;71844;51.528;4.442;2023-07-31T07:48:26;16.50;92.80
82243;DHT22;71844;51.528;4.442;2023-07-31T07:50:55;16.50;92.70
82243;DHT22;71844;51.528;4.442;2023-07-31T07:53:22;16.50;92.40
82243;DHT22;71844;51.528;4.442;2023-07-31T07:55:49;16.60;92.30
82243;DHT22;71844;51.528;4.442;2023-07-31T07:58:16;16.60;92.30
82243;DHT22;71844;51.528;4.442;2023-07-31T08:00:48;16.50;92.30
82243;DHT22;71844;51.528;4.442;2023-07-31T08:03:16;16.60;92.40
82243;DHT22;71844;51.528;4.442;2023-07-31T08:05:44;16.60;92.70
82243;DHT22;71844;51.528;4.442;2023-07-31T08:08:15;16.60;92.50
82243;DHT22;71844;51.528;4.442;2023-07-31T08:10:44;16.60;92.70
82243;DHT22;71844;51.528;4.442;2023-07-31T08:13:11;16.70;92.70
82243;DHT22;71844;51.528;4.442;2023-07-31T08:15:41;16.70;92.50
82243;DHT22;71844;51.528;4.442;2023-07-31T08:18:09;16.70;92.70
82243;DHT22;71844;51.528;4.442;2023-07-31T08:20:36;16.80;92.50
82243;DHT22;71844;51.528;4.442;2023-07-31T08:23:03;16.90;92.60
82243;DHT22;71844;51.528;4.442;2023-07-31T08:25:30;16.90;92.50
82243;DHT22;71844;51.528;4.442;2023-07-31T08:27:56;16.90;92.30
82243;DHT22;71844;51.528;4.442;2023-07-31T08:30:23;17.00;92.40
82243;DHT22;71844;51.528;4.442;2023-07-31T08:32:50;17.00;92.50
82243;DHT22;71844;51.528;4.442;2023-07-31T08:35:17;17.00;92.30
82243;DHT22;71844;51.528;4.442;2023-07-31T08:37:44;17.10;92.40
82243;DHT22;71844;51.528;4.442;2023-07-31T08:40:11;17.20;92.10
82243;DHT22;71844;51.528;4.442;2023-07-31T08:42:49;17.20;91.80
82243;DHT22;71844;51.528;4.442;2023-07-31T08:45:18;17.30;91.90
82243;DHT22;71844;51.528;4.442;2023-07-31T08:47:49;17.30;91.80
82243;DHT22;71844;51.528;4.442;2023-07-31T08:50:18;17.40;91.70
82243;DHT22;71844;51.528;4.442;2023-07-31T08:52:47;17.50;91.50
82243;DHT22;71844;51.528;4.442;2023-07-31T08:55:14;17.50;91.30
82243;DHT22;71844;51.528;4.442;2023-07-31T08:57:42;17.50;90.90
82243;DHT22;71844;51.528;4.442;2023-07-31T09:00:10;17.60;90.90
82243;DHT22;71844;51.528;4.442;2023-07-31T09:02:45;17.60;90.90
82243;DHT22;71844;51.528;4.442;2023-07-31T09:05:13;17.60;90.70
82243;DHT22;71844;51.528;4.442;2023-07-31T09:07:40;17.70;90.80
82243;DHT22;71844;51.528;4.442;2023-07-31T09:10:09;17.80;91.00
82243;DHT22;71844;51.528;4.442;2023-07-31T09:12:36;17.80;90.80
82243;DHT22;71844;51.528;4.442;2023-07-31T09:15:04;17.90;90.50
82243;DHT22;71844;51.528;4.442;2023-07-31T09:17:32;18.00;89.90
82243;DHT22;71844;51.528;4.442;2023-07-31T09:20:17;18.00;90.20
82243;DHT22;71844;51.528;4.442;2023-07-31T09:22:44;18.10;89.90
82243;DHT22;71844;51.528;4.442;2023-07-31T09:25:16;18.10;89.50
82243;DHT22;71844;51.528;4.442;2023-07-31T09:28:01;18.20;89.30
82243;DHT22;71844;51.528;4.442;2023-07-31T09:30:28;18.20;89.00
82243;DHT22;71844;51.528;4.442;2023-07-31T09:33:06;18.20;88.90
82243;DHT22;71844;51.528;4.442;2023-07-31T09:35:34;18.20;89.00
82243;DHT22;71844;51.528;4.442;2023-07-31T09:38:13;18.20;88.90
82243;DHT22;71844;51.528;4.442;2023-07-31T09:40:42;18.20;88.70
82243;DHT22;71844;51.528;4.442;2023-07-31T09:43:11;18.20;88.90
82243;DHT22;71844;51.528;4.442;2023-07-31T09:45:40;18.30;88.70
82243;DHT22;71844;51.528;4.442;2023-07-31T09:48:10;18.20;88.30
82243;DHT22;71844;51.528;4.442;2023-07-31T09:50:38;18.30;88.40
82243;DHT22;71844;51.528;4.442;2023-07-31T09:53:06;18.30;88.30
82243;DHT22;71844;51.528;4.442;2023-07-31T09:55:34;18.30;88.20
82243;DHT22;71844;51.528;4.442;2023-07-31T09:58:12;18.30;88.10
82243;DHT22;71844;51.528;4.442;2023-07-31T10:00:39;18.30;87.90
82243;DHT22;71844;51.528;4.442;2023-07-31T10:03:08;18.30;88.30
82243;DHT22;71844;51.528;4.442;2023-07-31T10:05:55;18.40;88.30
82243;DHT22;71844;51.528;4.442;2023-07-31T10:08:28;18.40;88.00
82243;DHT22;71844;51.528;4.442;2023-07-31T10:10:59;18.40;87.80
82243;DHT22;71844;51.528;4.442;2023-07-31T10:13:30;18.40;87.60
82243;DHT22;71844;51.528;4.442;2023-07-31T10:15:59;18.40;87.80
82243;DHT22;71844;51.528;4.442;2023-07-31T10:18:28;18.40;87.80
82243;DHT22;71844;51.528;4.442;2023-07-31T10:20:56;18.40;87.80
82243;DHT22;71844;51.528;4.442;2023-07-31T10:23:24;18.40;87.60
82243;DHT22;71844;51.528;4.442;2023-07-31T10:25:53;18.30;87.60
82243;DHT22;71844;51.528;4.442;2023-07-31T10:28:21;18.30;87.50
82243;DHT22;71844;51.528;4.442;2023-07-31T10:30:49;18.20;87.70
82243;DHT22;71844;51.528;4.442;2023-07-31T10:33:17;18.20;87.90
82243;DHT22;71844;51.528;4.442;2023-07-31T10:35:44;18.20;88.20
82243;DHT22;71844;51.528;4.442;2023-07-31T10:38:13;18.10;88.00
82243;DHT22;71844;51.528;4.442;2023-07-31T10:40:40;18.10;88.20
82243;DHT22;71844;51.528;4.442;2023-07-31T10:43:07;18.10;88.30
82243;DHT22;71844;51.528;4.442;2023-07-31T10:45:42;18.10;88.20
82243;DHT22;71844;51.528;4.442;2023-07-31T10:48:16;18.10;88.20
82243;DHT22;71844;51.528;4.442;2023-07-31T10:53:45;18.00;88.10
82243;DHT22;71844;51.528;4.442;2023-07-31T10:56:12;18.10;88.20
82243;DHT22;71844;51.528;4.442;2023-07-31T10:58:43;18.10;88.20
82243;DHT22;71844;51.528;4.442;2023-07-31T11:01:10;18.10;88.20
82243;DHT22;71844;51.528;4.442;2023-07-31T11:03:46;18.10;88.10
82243;DHT22;71844;51.528;4.442;2023-07-31T11:06:15;18.20;88.30
82243;DHT22;71844;51.528;4.442;2023-07-31T11:08:47;18.20;88.30
82243;DHT22;71844;51.528;4.442;2023-07-31T11:11:16;18.30;88.20
82243;DHT22;71844;51.528;4.442;2023-07-31T11:13:48;18.40;88.20
82243;DHT22;71844;51.528;4.442;2023-07-31T11:16:17;18.40;88.00
82243;DHT22;71844;51.528;4.442;2023-07-31T11:18:46;18.50;87.90
82243;DHT22;71844;51.528;4.442;2023-07-31T11:21:18;18.50;87.60
82243;DHT22;71844;51.528;4.442;2023-07-31T11:23:46;18.60;87.40
82243;DHT22;71844;51.528;4.442;2023-07-31T11:26:14;18.70;87.40
82243;DHT22;71844;51.528;4.442;2023-07-31T11:28:41;18.70;87.40
82243;DHT22;71844;51.528;4.442;2023-07-31T11:31:11;18.90;87.30
82243;DHT22;71844;51.528;4.442;2023-07-31T11:33:38;18.90;87.30
82243;DHT22;71844;51.528;4.442;2023-07-31T11:36:05;19.00;86.80
82243;DHT22;71844;51.528;4.442;2023-07-31T11:38:33;19.10;86.60
82243;DHT22;71844;51.528;4.442;2023-07-31T11:41:02;19.00;86.30
82243;DHT22;71844;51.528;4.442;2023-07-31T11:43:32;18.90;86.40
82243;DHT22;71844;51.528;4.442;2023-07-31T11:46:00;18.90;86.40
82243;DHT22;71844;51.528;4.442;2023-07-31T11:48:32;18.90;86.60
82243;DHT22;71844;51.528;4.442;2023-07-31T11:51:01;18.90;86.60
82243;DHT22;71844;51.528;4.442;2023-07-31T11:53:52;18.80;86.60
82243;DHT22;71844;51.528;4.442;2023-07-31T11:56:20;18.80;86.50
82243;DHT22;71844;51.528;4.442;2023-07-31T11:58:55;18.90;86.60
82243;DHT22;71844;51.528;4.442;2023-07-31T12:01:24;18.90;86.70
82243;DHT22;71844;51.528;4.442;2023-07-31T12:03:52;18.90;86.70
82243;DHT22;71844;51.528;4.442;2023-07-31T12:06:19;18.80;86.70
82243;DHT22;71844;51.528;4.442;2023-07-31T12:08:48;18.80;86.90
82243;DHT22;71844;51.528;4.442;2023-07-31T12:11:15;18.80;87.10
82243;DHT22;71844;51.528;4.442;2023-07-31T12:13:44;18.70;87.50
82243;DHT22;71844;51.528;4.442;2023-07-31T12:16:11;18.70;87.60
82243;DHT22;71844;51.528;4.442;2023-07-31T12:18:38;18.70;87.70
82243;DHT22;71844;51.528;4.442;2023-07-31T12:21:07;18.70;87.60
82243;DHT22;71844;51.528;4.442;2023-07-31T12:23:36;18.70;87.70
82243;DHT22;71844;51.528;4.442;2023-07-31T12:28:35;18.60;87.90
82243;DHT22;71844;51.528;4.442;2023-07-31T12:31:04;18.70;87.80
82243;DHT22;71844;51.528;4.442;2023-07-31T12:33:32;18.70;87.80
82243;DHT22;71844;51.528;4.442;2023-07-31T12:36:04;18.70;87.70
82243;DHT22;71844;51.528;4.442;2023-07-31T12:38:33;18.70;87.70
82243;DHT22;71844;51.528;4.442;2023-07-31T12:41:00;18.70;87.70
82243;DHT22;71844;51.528;4.442;2023-07-31T12:43:27;18.70;87.60
82243;DHT22;71844;51.528;4.442;2023-07-31T12:45:54;18.70;87.80
82243;DHT22;71844;51.528;4.442;2023-07-31T12:48:22;18.70;87.60
82243;DHT22;71844;51.528;4.442;2023-07-31T12:50:49;18.70;87.70
82243;DHT22;71844;51.528;4.442;2023-07-31T12:53:16;18.70;87.70
82243;DHT22;71844;51.528;4.442;2023-07-31T12:55:43;18.60;87.80
82243;DHT22;71844;51.528;4.442;2023-07-31T12:58:10;18.60;88.10
82243;DHT22;71844;51.528;4.442;2023-07-31T13:00:37;18.60;88.30
82243;DHT22;71844;51.528;4.442;2023-07-31T13:03:04;18.60;88.50
82243;DHT22;71844;51.528;4.442;2023-07-31T13:05:31;18.60;88.50
82243;DHT22;71844;51.528;4.442;2023-07-31T13:07:58;18.60;88.70
82243;DHT22;71844;51.528;4.442;2023-07-31T13:10:25;18.70;88.70
82243;DHT22;71844;51.528;4.442;2023-07-31T13:12:53;18.70;88.70
82243;DHT22;71844;51.528;4.442;2023-07-31T13:15:20;18.70;88.60
82243;DHT22;71844;51.528;4.442;2023-07-31T13:17:47;18.70;89.00
82243;DHT22;71844;51.528;4.442;2023-07-31T13:20:14;18.70;89.40
82243;DHT22;71844;51.528;4.442;2023-07-31T13:22:41;18.80;89.60
82243;DHT22;71844;51.528;4.442;2023-07-31T13:25:11;18.80;89.40
82243;DHT22;71844;51.528;4.442;2023-07-31T13:27:38;18.80;89.30
82243;DHT22;71844;51.528;4.442;2023-07-31T13:30:06;18.80;89.20
82243;DHT22;71844;51.528;4.442;2023-07-31T13:32:33;18.80;89.20
82243;DHT22;71844;51.528;4.442;2023-07-31T13:34:59;18.80;89.70
82243;DHT22;71844;51.528;4.442;2023-07-31T13:37:26;18.70;89.50
82243;DHT22;71844;51.528;4.442;2023-07-31T13:39:53;18.70;89.70
82243;DHT22;71844;51.528;4.442;2023-07-31T13:42:20;18.60;89.80
82243;DHT22;71844;51.528;4.442;2023-07-31T13:44:47;18.60;89.90
82243;DHT22;71844;51.528;4.442;2023-07-31T13:47:14;18.60;89.70
82243;DHT22;71844;51.528;4.442;2023-07-31T13:49:41;18.60;90.00
82243;DHT22;71844;51.528;4.442;2023-07-31T13:52:09;18.60;90.10
82243;DHT22;71844;51.528;4.442;2023-07-31T13:54:36;18.60;90.20
82243;DHT22;71844;51.528;4.442;2023-07-31T13:57:03;18.60;90.30
82243;DHT22;71844;51.528;4.442;2023-07-31T13:59:30;18.60;90.10
82243;DHT22;71844;51.528;4.442;2023-07-31T14:01:57;18.60;90.10
82243;DHT22;71844;51.528;4.442;2023-07-31T14:04:23;18.60;90.40
82243;DHT22;71844;51.528;4.442;2023-07-31T14:06:50;18.60;90.50
82243;DHT22;71844;51.528;4.442;2023-07-31T14:09:17;18.60;90.70
82243;DHT22;71844;51.528;4.442;2023-07-31T14:11:44;18.60;90.70
82243;DHT22;71844;51.528;4.442;2023-07-31T14:14:11;18.60;90.80
82243;DHT22;71844;51.528;4.442;2023-07-31T14:16:38;18.60;90.70
82243;DHT22;71844;51.528;4.442;2023-07-31T14:19:06;18.50;90.70
82243;DHT22;71844;51.528;4.442;2023-07-31T14:21:35;18.50;90.70
82243;DHT22;71844;51.528;4.442;2023-07-31T14:24:02;18.50;90.90
82243;DHT22;71844;51.528;4.442;2023-07-31T14:26:29;18.50;90.70
82243;DHT22;71844;51.528;4.442;2023-07-31T14:28:55;18.40;90.70
82243;DHT22;71844;51.528;4.442;2023-07-31T14:31:22;18.40;90.80
82243;DHT22;71844;51.528;4.442;2023-07-31T14:33:49;18.30;90.70
82243;DHT22;71844;51.528;4.442;2023-07-31T14:36:16;18.30;91.00
82243;DHT22;71844;51.528;4.442;2023-07-31T14:38:43;18.20;91.40
82243;DHT22;71844;51.528;4.442;2023-07-31T14:41:10;18.20;91.60
82243;DHT22;71844;51.528;4.442;2023-07-31T14:43:36;18.20;91.40
82243;DHT22;71844;51.528;4.442;2023-07-31T14:46:04;18.20;91.70
82243;DHT22;71844;51.528;4.442;2023-07-31T14:48:31;18.20;91.80
82243;DHT22;71844;51.528;4.442;2023-07-31T14:50:58;18.10;91.90
82243;DHT22;71844;51.528;4.442;2023-07-31T14:53:25;18.10;92.10
82243;DHT22;71844;51.528;4.442;2023-07-31T14:55:51;18.10;92.10
82243;DHT22;71844;51.528;4.442;2023-07-31T14:58:19;18.10;92.10
82243;DHT22;71844;51.528;4.442;2023-07-31T15:00:45;18.10;91.90
82243;DHT22;71844;51.528;4.442;2023-07-31T15:03:12;18.00;92.10
82243;DHT22;71844;51.528;4.442;2023-07-31T15:05:39;18.00;92.30
82243;DHT22;71844;51.528;4.442;2023-07-31T15:08:06;18.00;92.20
82243;DHT22;71844;51.528;4.442;2023-07-31T15:10:33;18.00;92.40
82243;DHT22;71844;51.528;4.442;2023-07-31T15:13:00;18.00;92.20
82243;DHT22;71844;51.528;4.442;2023-07-31T15:15:28;17.90;92.40
82243;DHT22;71844;51.528;4.442;2023-07-31T15:17:55;17.90;92.50
82243;DHT22;71844;51.528;4.442;2023-07-31T15:20:22;18.00;92.60
82243;DHT22;71844;51.528;4.442;2023-07-31T15:22:49;18.00;92.60
82243;DHT22;71844;51.528;4.442;2023-07-31T15:25:16;18.00;92.70
82243;DHT22;71844;51.528;4.442;2023-07-31T15:27:43;18.00;92.40
82243;DHT22;71844;51.528;4.442;2023-07-31T15:30:10;18.00;92.40
82243;DHT22;71844;51.528;4.442;2023-07-31T15:32:37;17.90;92.60
82243;DHT22;71844;51.528;4.442;2023-07-31T15:35:06;18.00;92.40
82243;DHT22;71844;51.528;4.442;2023-07-31T15:37:32;17.90;92.30
82243;DHT22;71844;51.528;4.442;2023-07-31T15:39:59;17.90;92.50
82243;DHT22;71844;51.528;4.442;2023-07-31T15:42:26;17.90;92.50
82243;DHT22;71844;51.528;4.442;2023-07-31T15:44:53;17.90;92.60
82243;DHT22;71844;51.528;4.442;2023-07-31T15:47:20;17.90;92.60
82243;DHT22;71844;51.528;4.442;2023-07-31T15:49:46;17.90;92.60
82243;DHT22;71844;51.528;4.442;2023-07-31T15:52:13;17.90;92.70
82243;DHT22;71844;51.528;4.442;2023-07-31T15:54:40;17.90;93.10
82243;DHT22;71844;51.528;4.442;2023-07-31T15:57:07;17.90;93.00
82243;DHT22;71844;51.528;4.442;2023-07-31T15:59:34;17.90;92.90
82243;DHT22;71844;51.528;4.442;2023-07-31T16:02:01;17.90;92.90
82243;DHT22;71844;51.528;4.442;2023-07-31T16:04:28;17.90;93.10
82243;DHT22;71844;51.528;4.442;2023-07-31T16:06:55;17.90;92.90
82243;DHT22;71844;51.528;4.442;2023-07-31T16:09:22;17.90;93.00
82243;DHT22;71844;51.528;4.442;2023-07-31T16:11:48;17.90;93.30
82243;DHT22;71844;51.528;4.442;2023-07-31T16:14:15;17.90;93.30
82243;DHT22;71844;51.528;4.442;2023-07-31T16:16:42;17.90;93.50
82243;DHT22;71844;51.528;4.442;2023-07-31T16:19:09;17.90;93.40
82243;DHT22;71844;51.528;4.442;2023-07-31T16:21:36;17.90;93.10
82243;DHT22;71844;51.528;4.442;2023-07-31T16:24:04;17.90;93.30
82243;DHT22;71844;51.528;4.442;2023-07-31T16:26:31;17.90;93.50
82243;DHT22;71844;51.528;4.442;2023-07-31T16:28:59;17.90;93.30
82243;DHT22;71844;51.528;4.442;2023-07-31T16:31:26;17.90;93.50
82243;DHT22;71844;51.528;4.442;2023-07-31T16:33:53;17.80;93.50
82243;DHT22;71844;51.528;4.442;2023-07-31T16:36:20;17.80;93.50
82243;DHT22;71844;51.528;4.442;2023-07-31T16:38:48;17.80;93.80
82243;DHT22;71844;51.528;4.442;2023-07-31T16:41:15;17.80;93.90